Time;durP1;ratioP1;P1;durP2;ratioP2;P2;SDS_P1;SDS_P2;PMS_P1;PMS_P2;Temp;Humidity;BMP_temperature;BMP_pressure;BME280_temperature;BME280_humidity;BME280_pressure;Samples;Min_cycle;Max_cycle;Signal;HPM_P1;HPM_P2
2022/07/15 00:02:23;;;;;;;5.20;2.93;;;17.60;99.90;;;;;;5010801;28;20485;-83
2022/07/15 00:04:49;;;;;;;6.80;3.53;;;17.60;99.90;;;;;;5004134;28;20454;-83
2022/07/15 00:07:14;;;;;;;7.10;2.90;;;17.60;99.90;;;;;;5013394;28;20579;-84
2022/07/15 00:12:24;;;;;;;7.73;3.40;;;17.50;99.90;;;;;;5001393;28;20198;-82
2022/07/15 00:14:50;;;;;;;4.47;2.97;;;17.50;99.90;;;;;;5007706;28;20438;-82
2022/07/15 00:17:16;;;;;;;8.03;3.50;;;17.40;99.90;;;;;;5002173;28;20651;-82
2022/07/15 00:19:42;;;;;;;6.40;3.67;;;17.40;99.90;;;;;;5001761;28;20235;-83
2022/07/15 00:22:08;;;;;;;6.83;3.70;;;17.40;99.90;;;;;;5003486;28;20255;-84
2022/07/15 00:24:33;;;;;;;11.43;3.93;;;17.30;99.90;;;;;;5001611;28;20442;-85
2022/07/15 00:27:02;;;;;;;4.43;3.10;;;17.30;99.90;;;;;;5013923;28;20472;-83
2022/07/15 00:29:27;;;;;;;5.57;3.27;;;17.30;99.90;;;;;;5007079;28;20271;-83
2022/07/15 00:31:53;;;;;;;13.80;3.83;;;17.30;99.90;;;;;;5013826;28;20966;-83
2022/07/15 00:34:19;;;;;;;7.10;3.47;;;17.30;99.90;;;;;;5010626;28;20210;-84
2022/07/15 00:36:44;;;;;;;5.97;3.50;;;17.30;99.90;;;;;;5005543;28;21013;-86
2022/07/15 00:39:10;;;;;;;8.27;3.80;;;17.30;99.90;;;;;;5006563;28;20187;-84
2022/07/15 00:41:37;;;;;;;6.20;3.43;;;17.30;99.90;;;;;;5005666;28;20214;-83
2022/07/15 00:44:03;;;;;;;9.30;3.23;;;17.30;99.90;;;;;;5002647;28;20198;-83
2022/07/15 00:46:29;;;;;;;4.73;3.27;;;17.30;99.90;;;;;;5005683;28;20913;-82
2022/07/15 00:48:55;;;;;;;7.47;3.87;;;17.40;99.90;;;;;;5003253;28;20795;-84
2022/07/15 00:51:20;;;;;;;8.33;3.60;;;17.40;99.90;;;;;;5004197;28;20466;-84
2022/07/15 00:53:47;;;;;;;7.60;3.40;;;17.40;99.90;;;;;;5006233;28;20187;-84
2022/07/15 00:56:16;;;;;;;4.80;3.83;;;17.40;99.90;;;;;;5003611;28;20219;-84
2022/07/15 00:58:43;;;;;;;10.93;3.80;;;17.50;99.90;;;;;;5004348;28;20473;-86
2022/07/15 01:01:10;;;;;;;7.63;3.47;;;17.50;99.90;;;;;;5011060;28;21064;-83
2022/07/15 01:03:36;;;;;;;5.73;3.50;;;17.50;99.90;;;;;;5013275;28;20450;-84
2022/07/15 01:06:02;;;;;;;9.67;4.40;;;17.50;99.90;;;;;;5003211;28;20564;-84
2022/07/15 01:08:28;;;;;;;8.57;4.30;;;17.60;99.90;;;;;;5011966;28;20497;-83
2022/07/15 01:10:54;;;;;;;7.30;3.93;;;17.60;99.90;;;;;;5004400;28;20461;-84
2022/07/15 01:13:20;;;;;;;9.53;4.30;;;17.60;99.90;;;;;;5008547;28;20238;-83
2022/07/15 01:15:47;;;;;;;7.40;4.03;;;17.60;99.90;;;;;;5006370;28;20531;-84
2022/07/15 01:18:12;;;;;;;8.40;3.90;;;17.60;99.90;;;;;;5013853;28;20442;-83
2022/07/15 01:20:42;;;;;;;7.93;4.30;;;17.60;99.90;;;;;;5002912;28;20493;-83
2022/07/15 01:23:07;;;;;;;7.30;4.33;;;17.70;99.90;;;;;;5002455;28;20202;-84
2022/07/15 01:25:33;;;;;;;11.60;4.70;;;17.70;99.90;;;;;;5006977;28;20938;-83
2022/07/15 01:27:59;;;;;;;12.80;4.20;;;17.70;99.90;;;;;;5009366;28;20191;-84
2022/07/15 01:30:25;;;;;;;9.93;4.10;;;17.70;99.90;;;;;;5010854;28;20207;-84
2022/07/15 01:32:51;;;;;;;9.33;5.03;;;17.70;99.90;;;;;;5003151;28;20462;-83
2022/07/15 01:35:17;;;;;;;10.10;4.20;;;17.70;99.90;;;;;;5029249;28;20196;-83
2022/07/15 01:37:44;;;;;;;8.37;4.80;;;17.70;1.00;;;;;;5003807;28;20791;-84
2022/07/15 01:40:10;;;;;;;7.97;4.03;;;17.60;1.00;;;;;;5010225;28;20461;-84
2022/07/15 01:42:36;;;;;;;7.07;3.70;;;17.60;1.00;;;;;;4991737;28;20438;-86
2022/07/15 01:45:05;;;;;;;10.10;4.80;;;17.60;1.00;;;;;;5008258;28;20446;-82
2022/07/15 01:47:32;;;;;;;7.70;3.77;;;17.60;1.00;;;;;;5016909;28;20477;-83
2022/07/15 01:49:58;;;;;;;8.50;4.43;;;17.50;1.00;;;;;;5011592;28;21132;-84
2022/07/15 01:52:24;;;;;;;8.77;4.40;;;17.50;1.00;;;;;;5001195;28;20441;-84
2022/07/15 01:54:51;;;;;;;7.90;3.90;;;17.50;1.00;;;;;;5004237;28;20443;-83
2022/07/15 01:57:17;;;;;;;6.93;3.63;;;17.40;1.00;;;;;;5001144;28;20450;-84
2022/07/15 01:59:43;;;;;;;9.90;4.33;;;17.40;1.00;;;;;;5003335;28;20508;-84
2022/07/15 02:02:08;;;;;;;8.90;3.70;;;17.40;1.00;;;;;;5002364;28;20450;-83
2022/07/15 02:04:34;;;;;;;8.27;3.80;;;17.40;1.00;;;;;;5007757;28;20875;-83
2022/07/15 02:07:00;;;;;;;6.77;3.87;;;17.30;1.00;;;;;;5012013;28;20214;-82
2022/07/15 02:09:26;;;;;;;13.83;4.27;;;17.30;1.00;;;;;;5006786;28;20210;-83
2022/07/15 02:11:51;;;;;;;14.67;4.77;;;17.30;1.00;;;;;;5006203;28;20215;-83
2022/07/15 02:14:17;;;;;;;6.77;4.10;;;17.30;1.00;;;;;;5008583;28;20183;-83
2022/07/15 02:16:43;;;;;;;5.53;3.60;;;17.30;1.00;;;;;;5011760;28;20190;-83
2022/07/15 02:19:08;;;;;;;12.17;3.30;;;17.30;1.00;;;;;;5005933;28;20265;-82
2022/07/15 02:21:34;;;;;;;7.40;4.10;;;17.30;1.00;;;;;;4999356;28;20211;-84
2022/07/15 02:24:00;;;;;;;8.60;4.17;;;17.30;1.00;;;;;;5000272;28;20198;-83
2022/07/15 02:26:26;;;;;;;9.27;3.80;;;17.30;1.00;;;;;;5023116;28;20475;-85
2022/07/15 02:28:51;;;;;;;8.27;3.60;;;17.30;1.00;;;;;;5001095;28;20194;-82
2022/07/15 02:31:17;;;;;;;7.93;3.60;;;17.30;1.00;;;;;;5005493;28;20217;-81
2022/07/15 02:33:42;;;;;;;15.33;3.10;;;17.30;1.00;;;;;;5006310;28;20194;-82
2022/07/15 02:36:09;;;;;;;6.37;3.73;;;17.30;1.00;;;;;;5001541;28;20214;-85
2022/07/15 02:38:35;;;;;;;9.53;3.07;;;17.20;1.00;;;;;;5008476;28;20560;-84
2022/07/15 02:41:00;;;;;;;5.40;3.30;;;17.20;1.00;;;;;;5018647;28;20464;-84
2022/07/15 02:43:26;;;;;;;11.77;4.13;;;17.20;1.00;;;;;;5001468;28;20537;-83
2022/07/15 02:45:52;;;;;;;7.10;3.70;;;17.20;1.00;;;;;;5005833;28;20590;-83
2022/07/15 02:48:17;;;;;;;8.57;3.57;;;17.10;1.00;;;;;;5002979;28;20227;-84
2022/07/15 02:50:44;;;;;;;13.83;3.63;;;17.10;1.00;;;;;;4996616;28;20231;-83
2022/07/15 02:53:10;;;;;;;15.47;3.30;;;17.10;1.00;;;;;;5007585;28;20175;-83
2022/07/15 02:55:36;;;;;;;7.37;3.63;;;17.00;1.00;;;;;;5004494;28;20544;-82
2022/07/15 02:58:02;;;;;;;7.63;3.53;;;17.00;1.00;;;;;;5007119;28;20620;-83
2022/07/15 03:00:27;;;;;;;9.70;3.30;;;17.00;1.00;;;;;;5007056;28;20215;-83
2022/07/15 03:02:53;;;;;;;13.43;3.20;;;16.90;1.00;;;;;;5010756;28;20460;-83
2022/07/15 03:05:18;;;;;;;5.53;3.60;;;16.90;1.00;;;;;;5008642;28;20187;-83
2022/07/15 03:07:44;;;;;;;7.57;3.30;;;16.80;1.00;;;;;;5002334;28;20734;-82
2022/07/15 03:10:11;;;;;;;7.87;3.53;;;16.80;1.00;;;;;;5004022;28;20253;-82
2022/07/15 03:12:37;;;;;;;7.87;3.23;;;16.70;1.00;;;;;;5011620;28;20436;-83
2022/07/15 03:15:03;;;;;;;5.73;3.33;;;16.60;1.00;;;;;;5013293;28;20968;-82
2022/07/15 03:17:29;;;;;;;7.37;3.57;;;16.50;1.00;;;;;;5010311;28;20674;-83
2022/07/15 03:19:55;;;;;;;7.93;3.50;;;16.50;27.00;;;;;;5009173;28;20547;-83
2022/07/15 03:22:22;;;;;;;9.33;3.40;;;16.40;63.60;;;;;;5008343;28;20219;-83
2022/07/15 03:24:48;;;;;;;7.57;3.10;;;16.30;99.90;;;;;;5004736;28;20472;-83
2022/07/15 03:27:14;;;;;;;10.10;3.20;;;16.30;99.90;;;;;;5009613;28;20479;-83
2022/07/15 03:29:40;;;;;;;10.77;3.30;;;16.20;99.90;;;;;;5006440;28;20503;-83
2022/07/15 03:32:06;;;;;;;4.53;2.80;;;16.20;99.90;;;;;;5007997;28;20433;-83
2022/07/15 03:34:32;;;;;;;13.40;3.13;;;16.20;99.90;;;;;;5005349;28;20639;-83
2022/07/15 03:36:59;;;;;;;10.37;3.00;;;16.20;99.90;;;;;;5005619;28;20453;-83
2022/07/15 03:39:24;;;;;;;9.50;3.30;;;16.10;99.90;;;;;;5005710;28;20196;-82
2022/07/15 03:41:50;;;;;;;7.53;2.83;;;16.10;99.90;;;;;;5005252;28;20438;-83
2022/07/15 03:44:16;;;;;;;9.60;3.40;;;16.20;99.90;;;;;;5004937;28;20206;-83
2022/07/15 03:46:42;;;;;;;6.93;3.20;;;16.20;99.90;;;;;;5031820;28;20206;-86
2022/07/15 03:49:08;;;;;;;10.07;3.03;;;16.20;99.90;;;;;;5015077;28;20433;-83
2022/07/15 03:51:33;;;;;;;9.20;3.07;;;16.20;99.90;;;;;;5008685;28;20553;-84
2022/07/15 03:54:03;;;;;;;9.03;2.93;;;16.20;99.90;;;;;;5008134;28;20597;-83
2022/07/15 03:56:29;;;;;;;7.33;3.00;;;16.30;99.90;;;;;;5012920;28;20558;-83
2022/07/15 03:58:55;;;;;;;11.13;3.40;;;16.30;99.90;;;;;;5018092;28;20469;-83
2022/07/15 04:01:21;;;;;;;9.33;2.73;;;16.30;99.90;;;;;;5012468;28;20508;-83
2022/07/15 04:03:51;;;;;;;7.70;3.03;;;16.40;95.10;;;;;;5002744;28;20516;-83
2022/07/15 04:06:18;;;;;;;9.27;3.10;;;16.40;58.30;;;;;;5003460;28;20202;-83
2022/07/15 04:08:44;;;;;;;10.03;3.13;;;16.40;27.50;;;;;;5007921;28;20448;-84
2022/07/15 04:11:11;;;;;;;13.27;3.63;;;16.40;16.80;;;;;;5006980;28;20453;-84
2022/07/15 04:13:37;;;;;;;7.20;3.37;;;16.40;8.80;;;;;;5004681;28;20465;-83
2022/07/15 04:16:03;;;;;;;5.97;3.67;;;16.40;1.00;;;;;;5012539;28;20449;-83
2022/07/15 04:18:29;;;;;;;9.83;3.80;;;16.50;1.00;;;;;;5010458;28;20437;-83
2022/07/15 04:20:54;;;;;;;10.80;4.23;;;16.50;1.00;;;;;;5005554;28;20462;-83
2022/07/15 04:23:20;;;;;;;9.13;3.60;;;16.50;1.00;;;;;;5002436;28;20186;-83
2022/07/15 04:25:46;;;;;;;6.43;3.33;;;16.60;1.00;;;;;;5002522;28;20199;-84
2022/07/15 04:28:12;;;;;;;10.13;3.43;;;16.70;1.00;;;;;;5007959;28;20191;-82
2022/07/15 04:30:38;;;;;;;7.80;3.90;;;16.70;1.00;;;;;;5002938;28;20212;-83
2022/07/15 04:33:03;;;;;;;10.23;3.67;;;16.80;1.00;;;;;;5004687;28;20456;-83
2022/07/15 04:35:29;;;;;;;9.40;3.77;;;16.80;1.00;;;;;;5004997;28;20296;-83
2022/07/15 04:37:55;;;;;;;7.60;3.27;;;16.80;1.00;;;;;;5009544;28;20206;-82
2022/07/15 04:40:20;;;;;;;11.70;3.40;;;16.80;1.00;;;;;;5013386;28;20198;-84
2022/07/15 04:42:46;;;;;;;8.93;3.40;;;16.90;1.00;;;;;;5008435;28;20860;-83
2022/07/15 04:45:12;;;;;;;8.10;3.30;;;16.90;1.00;;;;;;5004925;28;20603;-84
2022/07/15 04:47:37;;;;;;;7.00;3.70;;;16.90;1.00;;;;;;5005618;28;20241;-85
2022/07/15 04:52:48;;;;;;;7.20;3.77;;;17.00;1.00;;;;;;5010313;28;20215;-85
2022/07/15 04:55:14;;;;;;;12.53;4.40;;;17.10;1.00;;;;;;5003270;28;20433;-85
2022/07/15 04:57:41;;;;;;;7.80;3.60;;;17.20;1.00;;;;;;5005546;28;20438;-84
2022/07/15 05:00:08;;;;;;;10.77;3.43;;;17.20;1.00;;;;;;5019839;28;20513;-83
2022/07/15 05:02:34;;;;;;;10.37;4.37;;;17.30;1.00;;;;;;5006975;28;20439;-83
2022/07/15 05:05:00;;;;;;;8.30;3.80;;;17.40;1.00;;;;;;5014363;28;20496;-83
2022/07/15 05:07:25;;;;;;;10.23;5.10;;;17.50;1.00;;;;;;5005625;28;20997;-84
2022/07/15 05:09:51;;;;;;;6.33;5.07;;;17.50;1.00;;;;;;5006621;28;20321;-85
2022/07/15 05:12:17;;;;;;;11.87;7.93;;;17.60;1.00;;;;;;5011188;28;20193;-81
2022/07/15 05:14:42;;;;;;;12.27;7.90;;;17.70;1.00;;;;;;5010552;28;20199;-86
2022/07/15 05:17:08;;;;;;;18.47;8.67;;;17.80;1.00;;;;;;5011373;28;20196;-84
2022/07/15 05:19:34;;;;;;;13.27;7.80;;;17.80;1.00;;;;;;5006175;28;20272;-83
2022/07/15 05:22:00;;;;;;;9.30;5.67;;;17.90;1.00;;;;;;5015272;28;20449;-84
2022/07/15 05:24:26;;;;;;;10.77;5.73;;;18.00;1.00;;;;;;5020884;28;20521;-87
2022/07/15 05:26:51;;;;;;;5.87;3.77;;;18.20;99.90;;;;;;5018137;28;20678;-85
2022/07/15 05:29:17;;;;;;;11.60;4.67;;;18.30;99.90;;;;;;5006720;28;20233;-85
2022/07/15 05:31:43;;;;;;;11.27;5.10;;;18.40;99.90;;;;;;5016273;28;20186;-85
2022/07/15 05:34:09;;;;;;;11.53;8.00;;;18.60;99.90;;;;;;5026783;28;20190;-87
2022/07/15 05:36:34;;;;;;;11.63;7.17;;;18.70;99.90;;;;;;5006711;28;20178;-84
2022/07/15 05:39:00;;;;;;;8.77;4.13;;;18.90;99.90;;;;;;5012182;28;20449;-84
2022/07/15 05:41:25;;;;;;;11.83;4.47;;;19.10;99.90;;;;;;5013867;28;20209;-84
2022/07/15 05:43:52;;;;;;;9.17;4.10;;;19.20;99.90;;;;;;5017247;28;20240;-87
2022/07/15 05:46:17;;;;;;;7.80;3.27;;;19.40;99.90;;;;;;5010009;28;20203;-87
2022/07/15 05:48:43;;;;;;;5.63;3.20;;;19.50;99.90;;;;;;5007677;28;20441;-84
2022/07/15 05:51:09;;;;;;;12.90;3.93;;;19.60;99.90;;;;;;5010571;28;20464;-84
2022/07/15 05:53:34;;;;;;;8.60;4.90;;;19.70;99.90;;;;;;5008724;28;20183;-85
2022/07/15 05:56:00;;;;;;;9.00;6.90;;;19.80;99.90;;;;;;5012351;28;20186;-88
2022/07/15 05:58:26;;;;;;;8.87;5.90;;;20.00;99.90;;;;;;5009056;28;20202;-85
2022/07/15 06:00:52;;;;;;;7.13;4.70;;;20.20;99.90;;;;;;5010125;28;20222;-87
2022/07/15 06:03:18;;;;;;;11.80;4.20;;;20.40;99.90;;;;;;5005749;28;20517;-85
2022/07/15 06:05:44;;;;;;;9.00;4.03;;;20.70;99.90;;;;;;4999622;28;20453;-85
2022/07/15 06:08:10;;;;;;;5.53;3.03;;;21.10;99.90;;;;;;5000543;28;20183;-85
2022/07/15 06:10:37;;;;;;;11.40;3.33;;;22.40;99.90;;;;;;5001596;28;20486;-85
2022/07/15 06:13:04;;;;;;;7.60;2.23;;;25.40;99.90;;;;;;5007540;28;20523;-85
2022/07/15 06:15:30;;;;;;;8.43;3.30;;;29.70;99.90;;;;;;5006736;28;20435;-86
2022/07/15 06:17:56;;;;;;;8.10;2.23;;;33.40;99.90;;;;;;5005828;28;20217;-86
2022/07/15 06:20:22;;;;;;;4.33;2.20;;;36.50;99.90;;;;;;5008116;28;20565;-87
2022/07/15 06:22:48;;;;;;;6.23;2.63;;;39.10;99.90;;;;;;4997815;28;20451;-86
2022/07/15 06:25:14;;;;;;;5.10;2.00;;;41.10;99.90;;;;;;5002410;28;20441;-86
2022/07/15 06:27:40;;;;;;;6.23;2.23;;;42.90;99.90;;;;;;5005605;28;20477;-87
2022/07/15 06:30:07;;;;;;;7.90;1.97;;;44.40;99.90;;;;;;5005546;28;20464;-87
2022/07/15 06:32:32;;;;;;;3.10;1.67;;;45.60;99.90;;;;;;5006337;28;20194;-88
2022/07/15 06:34:58;;;;;;;;;;;46.80;99.90;;;;;;5002699;28;20424;-87
2022/07/15 06:37:23;;;;;;;4.10;1.80;;;47.80;99.90;;;;;;5003538;28;20201;-87
2022/07/15 06:39:55;;;;;;;4.80;1.83;;;48.60;98.70;;;;;;5003413;28;20222;-86
2022/07/15 06:42:21;;;;;;;5.10;2.00;;;49.30;92.90;;;;;;5004079;28;20178;-86
2022/07/15 06:44:47;;;;;;;4.00;1.70;;;49.70;85.60;;;;;;5003731;28;20433;-88
2022/07/15 06:47:13;;;;;;;4.30;1.97;;;50.40;77.00;;;;;;5004951;28;20786;-85
2022/07/15 06:49:39;;;;;;;4.57;1.63;;;51.00;69.60;;;;;;5007537;28;20217;-85
2022/07/15 06:52:06;;;;;;;5.80;2.07;;;52.30;64.10;;;;;;5002153;28;20241;-86
2022/07/15 06:54:31;;;;;;;7.75;1.75;;;53.40;58.70;;;;;;5006949;28;20198;-89
2022/07/15 06:56:59;;;;;;;7.13;1.80;;;54.90;56.10;;;;;;5021314;28;20425;-85
2022/07/15 06:59:28;;;;;;;4.57;2.08;;;56.40;70.80;;;;;;5005649;28;20225;-87
2022/07/15 07:01:56;;;;;;;2.78;1.23;;;57.80;52.10;;;;;;5008495;28;20595;-88
2022/07/15 07:04:30;;;;;;;4.35;1.58;;;58.70;50.20;;;;;;5007427;28;20185;-86
2022/07/15 07:06:55;;;;;;;6.35;2.45;;;59.60;47.50;;;;;;5002525;28;20270;-86
2022/07/15 07:09:21;;;;;;;6.38;1.90;;;60.20;44.60;;;;;;5005792;28;20222;-86
2022/07/15 07:11:47;;;;;;;6.78;1.98;;;61.00;47.80;;;;;;5006571;28;20179;-87
2022/07/15 07:14:13;;;;;;;3.22;1.50;;;61.00;40.30;;;;;;5005711;28;20182;-88
2022/07/15 07:16:39;;;;;;;4.20;1.60;;;59.90;34.60;;;;;;5005787;28;20608;-86
2022/07/15 07:19:07;;;;;;;3.38;1.25;;;59.70;31.60;;;;;;5007028;28;20187;-86
2022/07/15 07:21:33;;;;;;;4.28;1.50;;;57.30;25.60;;;;;;5002244;28;20210;-86
2022/07/15 07:23:59;;;;;;;6.80;1.73;;;56.30;23.10;;;;;;5002658;28;20197;-86
2022/07/15 07:26:25;;;;;;;4.47;1.90;;;57.70;25.40;;;;;;5000943;28;20211;-86
2022/07/15 07:28:51;;;;;;;3.80;1.42;;;57.80;24.60;;;;;;5007086;28;20216;-90
2022/07/15 07:31:17;;;;;;;3.47;1.60;;;56.50;21.70;;;;;;4999069;28;20198;-86
2022/07/15 07:33:42;;;;;;;4.93;1.90;;;51.20;12.90;;;;;;5002670;28;20495;-87
2022/07/15 07:36:09;;;;;;;9.80;2.03;;;47.30;8.40;;;;;;5001480;28;20665;-85
2022/07/15 07:38:35;;;;;;;3.07;1.70;;;44.60;6.10;;;;;;5022175;28;20211;-85
2022/07/15 07:41:01;;;;;;;4.63;1.30;;;46.00;10.60;;;;;;5008596;28;21002;-87
2022/07/15 07:43:27;;;;;;;5.63;2.03;;;50.10;19.20;;;;;;5010493;28;20467;-88
2022/07/15 07:45:53;;;;;;;4.68;1.52;;;53.70;24.20;;;;;;5005150;28;21185;-89
2022/07/15 07:48:19;;;;;;;3.55;1.60;;;56.10;27.20;;;;;;5006780;28;20182;-89
2022/07/15 07:50:46;;;;;;;2.90;1.30;;;58.00;28.10;;;;;;5024010;28;20210;-86
2022/07/15 07:53:11;;;;;;;2.63;1.45;;;59.20;28.50;;;;;;5009005;28;20225;-88
2022/07/15 07:55:38;;;;;;;2.85;1.33;;;59.70;27.00;;;;;;5011810;28;20171;-86
2022/07/15 07:58:04;;;;;;;2.78;1.50;;;59.70;26.10;;;;;;5004938;28;20225;-86
2022/07/15 08:00:31;;;;;;;4.40;1.42;;;60.30;24.90;;;;;;5008633;28;20221;-85
2022/07/15 08:02:59;;;;;;;3.42;1.50;;;61.10;25.50;;;;;;5006883;28;20281;-88
2022/07/15 08:05:26;;;;;;;2.53;1.23;;;61.70;25.00;;;;;;5013607;28;20213;-86
2022/07/15 08:08:08;;;;;;;3.60;1.03;;;55.70;12.20;;;;;;5008897;28;20284;-87
2022/07/15 08:10:34;;;;;;;2.23;1.10;;;50.70;4.50;;;;;;5008597;28;20525;-85
2022/07/15 08:13:01;;;;;;;3.43;1.00;;;51.20;7.50;;;;;;5010622;28;20516;-88
2022/07/15 08:15:26;;;;;;;3.33;1.27;;;51.40;7.80;;;;;;5004291;28;20255;-85
2022/07/15 08:17:52;;;;;;;3.20;1.00;;;47.20;1.00;;;;;;5007011;28;20446;-85
2022/07/15 08:20:18;;;;;;;2.50;1.17;;;46.00;1.00;;;;;;5004994;28;20446;-85
2022/07/15 08:22:43;;;;;;;4.50;1.30;;;48.40;5.00;;;;;;5013184;28;20186;-86
2022/07/15 08:25:09;;;;;;;2.17;0.90;;;50.30;8.70;;;;;;5011384;28;20193;-85
2022/07/15 08:27:34;;;;;;;2.33;0.90;;;51.80;11.40;;;;;;5025065;28;20214;-85
2022/07/15 08:30:00;;;;;;;1.70;0.83;;;53.10;12.30;;;;;;5009640;28;20215;-85
2022/07/15 08:32:26;;;;;;;1.93;1.10;;;51.10;7.30;;;;;;5010077;28;20191;-85
2022/07/15 08:34:51;;;;;;;3.37;0.80;;;47.60;10.20;;;;;;5010173;28;20198;-85
2022/07/15 08:37:17;;;;;;;3.73;0.90;;;46.20;1.00;;;;;;5014265;28;20538;-85
2022/07/15 08:39:43;;;;;;;1.90;0.97;;;47.80;2.20;;;;;;5003100;28;20210;-85
2022/07/15 08:42:08;;;;;;;2.63;0.90;;;48.90;4.20;;;;;;5008134;28;20288;-85
2022/07/15 08:44:36;;;;;;;1.40;0.80;;;48.10;3.10;;;;;;5010050;28;20195;-85
2022/07/15 08:47:04;;;;;;;2.70;1.10;;;44.90;1.00;;;;;;5004138;28;20213;-86
2022/07/15 08:49:32;;;;;;;6.20;1.27;;;46.10;1.00;;;;;;5010520;28;20461;-84
2022/07/15 08:51:59;;;;;;;2.37;0.97;;;48.40;4.80;;;;;;5010851;28;20485;-85
2022/07/15 08:54:37;;;;;;;2.23;1.00;;;48.60;5.20;;;;;;5010031;28;20483;-84
2022/07/15 08:57:06;;;;;;;2.63;0.93;;;50.10;8.10;;;;;;5006047;28;20953;-85
2022/07/15 08:59:32;;;;;;;1.67;0.90;;;51.50;10.00;;;;;;5005964;28;20445;-85
2022/07/15 09:01:59;;;;;;;2.70;1.17;;;51.40;9.50;;;;;;5021944;28;20456;-84
2022/07/15 09:04:24;;;;;;;4.20;0.93;;;51.60;8.60;;;;;;5013833;28;20217;-86
2022/07/15 09:06:51;;;;;;;2.97;1.03;;;52.10;8.40;;;;;;5009912;28;20469;-85
2022/07/15 09:09:28;;;;;;;5.07;1.53;;;52.10;8.10;;;;;;5010769;28;20181;-84
2022/07/15 09:11:58;;;;;;;2.47;1.03;;;52.50;8.10;;;;;;5007758;28;20441;-84
2022/07/15 09:14:29;;;;;;;3.50;1.30;;;52.80;8.10;;;;;;5005651;28;20429;-85
2022/07/15 09:17:07;;;;;;;2.33;0.80;;;53.30;8.10;;;;;;5010955;28;20265;-85
2022/07/15 09:20:01;;;;;;;2.40;1.10;;;53.30;7.50;;;;;;5037532;28;20202;-85
2022/07/15 09:22:28;;;;;;;3.23;1.10;;;51.90;4.70;;;;;;5008760;28;20483;-85
2022/07/15 09:25:04;;;;;;;3.10;1.30;;;51.90;4.30;;;;;;5007788;28;20433;-85
2022/07/15 09:27:33;;;;;;;2.37;1.00;;;52.80;5.70;;;;;;5009894;28;20499;-83
2022/07/15 09:36:22;;;;;;;2.43;0.90;;;51.40;1.30;;;;;;5009380;28;20436;-86
2022/07/15 09:38:52;;;;;;;2.47;1.10;;;47.20;1.00;;;;;;5010177;28;20705;-85
2022/07/15 09:41:33;;;;;;;1.50;0.90;;;44.40;1.00;;;;;;5009400;28;20445;-87
2022/07/15 09:44:05;;;;;;;3.87;1.37;;;42.90;1.00;;;;;;5007036;28;20437;-87
2022/07/15 09:46:51;;;;;;;3.80;0.93;;;41.20;1.00;;;;;;5015695;28;20553;-86
2022/07/15 09:49:38;;;;;;;2.33;0.90;;;39.00;1.00;;;;;;5001319;28;20945;-86
2022/07/15 09:52:07;;;;;;;4.10;1.10;;;37.40;1.00;;;;;;5025811;28;20857;-86
2022/07/15 09:54:41;;;;;;;4.67;1.20;;;36.40;1.00;;;;;;5004680;28;20438;-84
2022/07/15 09:57:18;;;;;;;2.63;0.77;;;38.90;1.00;;;;;;5006579;28;20479;-84
2022/07/15 09:59:45;;;;;;;3.43;1.00;;;41.90;1.00;;;;;;5005087;28;20488;-85
2022/07/15 10:02:14;;;;;;;3.10;1.03;;;40.10;1.00;;;;;;5003067;28;20426;-86
2022/07/15 10:04:40;;;;;;;3.80;1.10;;;40.90;1.00;;;;;;5006648;28;20488;-88
2022/07/15 10:07:07;;;;;;;5.03;1.00;;;42.60;1.00;;;;;;5005244;28;21123;-87
2022/07/15 10:09:34;;;;;;;3.47;1.30;;;43.00;1.00;;;;;;5002991;28;21087;-86
2022/07/15 10:12:14;;;;;;;5.67;1.20;;;42.60;1.00;;;;;;5008156;28;20434;-85
2022/07/15 10:14:46;;;;;;;3.20;1.50;;;43.70;2.40;;;;;;5004369;28;20469;-83
2022/07/15 10:17:17;;;;;;;3.00;1.30;;;43.90;2.70;;;;;;5002902;28;20480;-85
2022/07/15 10:19:54;;;;;;;3.83;0.90;;;42.50;1.00;;;;;;5003244;28;21500;-86
2022/07/15 10:22:42;;;;;;;2.93;0.90;;;41.10;1.00;;;;;;5018380;28;20446;-86
2022/07/15 10:25:26;;;;;;;1.90;0.80;;;39.30;1.00;;;;;;5013391;28;20429;-85
2022/07/15 10:28:05;;;;;;;4.67;1.20;;;37.70;1.00;;;;;;5003893;28;20462;-87
2022/07/15 10:30:31;;;;;;;2.63;1.00;;;38.30;1.00;;;;;;5006401;28;20453;-86
2022/07/15 10:33:02;;;;;;;3.63;1.17;;;38.60;1.00;;;;;;5001072;28;20427;-85
2022/07/15 10:36:15;;;;;;;5.20;1.10;;;38.40;1.00;;;;;;5007391;28;20210;-87
2022/07/15 10:38:41;;;;;;;4.33;1.37;;;37.60;1.00;;;;;;5004343;28;20859;-85
2022/07/15 10:41:16;;;;;;;4.37;1.07;;;36.60;1.00;;;;;;5004475;28;20462;-85
2022/07/15 10:43:44;;;;;;;4.30;1.27;;;35.80;1.00;;;;;;5023634;28;20249;-86
2022/07/15 10:46:19;;;;;;;4.40;1.50;;;35.10;1.00;;;;;;5010800;28;20430;-87
2022/07/15 10:48:46;;;;;;;4.20;1.20;;;34.60;3.40;;;;;;5007240;28;20852;-87
2022/07/15 10:51:33;;;;;;;2.23;1.00;;;35.80;1.00;;;;;;5005242;28;20463;-86
2022/07/15 10:53:59;;;;;;;2.40;1.30;;;37.10;1.00;;;;;;5019693;28;20824;-87
2022/07/15 10:56:36;;;;;;;5.37;1.17;;;37.50;1.00;;;;;;5022746;28;20452;-87
2022/07/15 10:59:14;;;;;;;2.80;0.83;;;36.90;1.00;;;;;;5003958;28;20449;-86
2022/07/15 11:01:43;;;;;;;2.10;0.93;;;35.50;1.00;;;;;;5013012;28;20512;-85
2022/07/15 11:04:23;;;;;;;2.30;1.00;;;34.90;1.00;;;;;;5020747;28;20442;-85
2022/07/15 11:07:07;;;;;;;2.80;1.10;;;35.90;1.00;;;;;;5009657;28;20473;-85
2022/07/15 11:09:53;;;;;;;5.43;1.60;;;35.60;1.00;;;;;;5002663;28;20631;-85
2022/07/15 11:12:43;;;;;;;2.17;1.13;;;35.30;1.00;;;;;;5009060;28;20434;-84
2022/07/15 11:15:21;;;;;;;1.73;0.80;;;34.80;1.00;;;;;;5010738;28;20434;-86
2022/07/15 11:17:53;;;;;;;3.83;1.10;;;34.20;1.00;;;;;;5014788;28;20468;-85
2022/07/15 11:20:24;;;;;;;4.00;1.20;;;33.80;1.00;;;;;;5010845;28;20813;-84
2022/07/15 11:22:52;;;;;;;7.00;1.13;;;33.50;1.00;;;;;;5015306;28;20504;-85
2022/07/15 11:25:26;;;;;;;2.47;1.10;;;34.20;1.00;;;;;;5011931;28;20453;-85
2022/07/15 11:28:12;;;;;;;2.60;1.07;;;35.90;3.70;;;;;;5011617;28;21170;-85
2022/07/15 11:33:43;;;;;;;6.80;1.10;;;38.40;8.90;;;;;;5017539;28;20448;-85
2022/07/15 11:36:58;;;;;;;4.20;1.20;;;39.40;10.30;;;;;;5009408;28;20473;-87
2022/07/15 11:39:28;;;;;;;6.10;1.00;;;40.50;11.10;;;;;;5013489;28;20791;-85
2022/07/15 11:44:47;;;;;;;3.40;1.13;;;40.00;7.20;;;;;;5008996;28;20461;-85
2022/07/15 11:47:22;;;;;;;3.90;0.93;;;39.20;4.50;;;;;;5008679;28;20473;-87
2022/07/15 11:49:48;;;;;;;2.30;0.77;;;39.40;4.90;;;;;;5029892;28;20547;-85
2022/07/15 11:52:30;;;;;;;2.20;0.73;;;38.70;3.20;;;;;;5012253;28;20481;-85
2022/07/15 11:54:56;;;;;;;3.10;1.10;;;38.70;3.80;;;;;;5014674;28;20201;-85
2022/07/15 11:57:22;;;;;;;2.90;1.33;;;39.40;5.50;;;;;;5014312;28;20608;-85
2022/07/15 11:59:53;;;;;;;3.70;1.30;;;39.90;5.80;;;;;;5008027;28;20222;-85
2022/07/15 12:02:18;;;;;;;2.10;0.93;;;40.20;6.20;;;;;;5007240;28;20954;-87
2022/07/15 12:04:44;;;;;;;2.03;0.93;;;40.50;6.70;;;;;;5002940;28;20446;-85
2022/07/15 12:07:10;;;;;;;2.10;1.60;;;40.80;6.90;;;;;;5009508;28;20242;-86
2022/07/15 12:09:46;;;;;;;2.17;0.93;;;41.00;7.10;;;;;;5003729;28;20705;-87
2022/07/15 12:12:12;;;;;;;2.40;0.90;;;40.80;5.70;;;;;;5010276;28;20194;-84
2022/07/15 12:14:38;;;;;;;3.83;1.03;;;40.10;4.10;;;;;;5006856;28;20457;-85
2022/07/15 12:17:04;;;;;;;2.03;0.93;;;39.20;2.50;;;;;;5011471;28;20265;-85
2022/07/15 12:19:32;;;;;;;3.00;0.90;;;38.20;1.00;;;;;;5002580;28;20432;-86
2022/07/15 12:22:09;;;;;;;3.67;0.97;;;37.60;1.00;;;;;;5014531;28;20421;-86
2022/07/15 12:24:52;;;;;;;2.70;1.10;;;36.60;1.00;;;;;;5009420;28;20430;-85
2022/07/15 12:27:33;;;;;;;3.43;1.00;;;35.60;1.00;;;;;;4999752;28;20466;-85
2022/07/15 12:30:07;;;;;;;3.27;0.90;;;34.60;3.80;;;;;;5015705;28;20492;-85
2022/07/15 12:32:33;;;;;;;2.20;1.40;;;33.90;1.00;;;;;;5016267;28;20416;-84
2022/07/15 12:35:00;;;;;;;1.90;0.90;;;33.50;1.00;;;;;;4998958;28;20419;-85
2022/07/15 12:37:47;;;;;;;3.57;1.00;;;33.00;1.00;;;;;;5008786;28;20179;-84
2022/07/15 12:40:20;;;;;;;2.67;1.33;;;32.90;1.00;;;;;;5006787;28;20448;-85
2022/07/15 12:42:49;;;;;;;3.87;0.93;;;32.50;1.00;;;;;;5010559;28;20783;-82
2022/07/15 12:45:26;;;;;;;3.50;1.20;;;32.40;1.00;;;;;;5011426;28;20476;-84
2022/07/15 12:48:03;;;;;;;3.83;1.00;;;32.30;1.00;;;;;;5016285;28;20465;-84
2022/07/15 12:50:34;;;;;;;8.50;1.07;;;32.00;1.00;;;;;;5019275;28;20482;-84
2022/07/15 12:53:00;;;;;;;4.17;1.27;;;32.00;1.00;;;;;;5014809;28;20433;-85
2022/07/15 12:55:40;;;;;;;4.10;1.00;;;31.80;1.00;;;;;;5012784;28;20532;-85
2022/07/15 12:58:10;;;;;;;6.37;1.00;;;32.40;1.00;;;;;;5026559;28;20202;-84
2022/07/15 13:00:37;;;;;;;1.97;0.90;;;32.60;1.00;;;;;;5014708;28;20476;-85
2022/07/15 13:03:08;;;;;;;3.53;0.93;;;32.90;1.00;;;;;;5012844;28;20449;-85
2022/07/15 13:05:40;;;;;;;4.67;1.33;;;34.00;3.50;;;;;;5012205;28;20460;-87
2022/07/15 13:08:14;;;;;;;3.83;0.80;;;34.90;4.80;;;;;;5020802;28;20472;-86
2022/07/15 13:10:42;;;;;;;3.50;1.73;;;35.70;6.30;;;;;;5010380;28;20492;-85
2022/07/15 13:13:09;;;;;;;1.97;0.70;;;36.00;6.30;;;;;;5011017;28;20493;-85
2022/07/15 13:15:35;;;;;;;4.40;1.00;;;36.20;6.60;;;;;;5009070;28;20466;-86